sensor_id;sensor_type;location;lat;lon;timestamp;pressure;altitude;pressure_sealevel;temperature;humidity
15678;BME280;7939;50.814;6.368;2022-09-16T00:02:19;99429.06;;;19.65;56.06
15678;BME280;7939;50.814;6.368;2022-09-16T00:04:45;99430.00;;;19.64;56.19
15678;BME280;7939;50.814;6.368;2022-09-16T00:07:12;99434.25;;;19.65;56.36
15678;BME280;7939;50.814;6.368;2022-09-16T00:09:39;99434.34;;;19.64;56.33
15678;BME280;7939;50.814;6.368;2022-09-16T00:12:06;99435.16;;;19.64;55.76
15678;BME280;7939;50.814;6.368;2022-09-16T00:14:33;99426.56;;;19.64;56.05
15678;BME280;7939;50.814;6.368;2022-09-16T00:17:00;99427.47;;;19.63;55.94
15678;BME280;7939;50.814;6.368;2022-09-16T00:19:27;99421.44;;;19.62;56.01
15678;BME280;7939;50.814;6.368;2022-09-16T00:21:53;99424.03;;;19.62;56.28
15678;BME280;7939;50.814;6.368;2022-09-16T00:24:20;99428.38;;;19.62;56.46
15678;BME280;7939;50.814;6.368;2022-09-16T00:26:46;99423.25;;;19.60;56.22
15678;BME280;7939;50.814;6.368;2022-09-16T00:29:13;99431.84;;;19.61;56.11
15678;BME280;7939;50.814;6.368;2022-09-16T00:31:41;99428.44;;;19.60;56.49
15678;BME280;7939;50.814;6.368;2022-09-16T00:34:08;99429.41;;;19.58;55.82
15678;BME280;7939;50.814;6.368;2022-09-16T00:36:34;99431.13;;;19.57;55.99
15678;BME280;7939;50.814;6.368;2022-09-16T00:39:02;99428.53;;;19.57;56.26
15678;BME280;7939;50.814;6.368;2022-09-16T00:41:29;99436.31;;;19.57;56.53
15678;BME280;7939;50.814;6.368;2022-09-16T00:43:59;99432.13;;;19.55;56.54
15678;BME280;7939;50.814;6.368;2022-09-16T00:46:31;99432.13;;;19.55;56.34
15678;BME280;7939;50.814;6.368;2022-09-16T00:49:03;99436.44;;;19.54;56.22
15678;BME280;7939;50.814;6.368;2022-09-16T00:51:31;99436.44;;;19.54;56.41
15678;BME280;7939;50.814;6.368;2022-09-16T00:54:01;99433.00;;;19.54;56.28
15678;BME280;7939;50.814;6.368;2022-09-16T00:56:33;99427.88;;;19.52;56.31
15678;BME280;7939;50.814;6.368;2022-09-16T00:59:04;99427.13;;;19.50;56.13
15678;BME280;7939;50.814;6.368;2022-09-16T01:01:33;99431.38;;;19.51;56.71
15678;BME280;7939;50.814;6.368;2022-09-16T01:04:06;99422.84;;;19.49;56.12
15678;BME280;7939;50.814;6.368;2022-09-16T01:06:37;99436.56;;;19.51;56.12
15678;BME280;7939;50.814;6.368;2022-09-16T01:09:04;99438.31;;;19.51;56.58
15678;BME280;7939;50.814;6.368;2022-09-16T01:11:31;99434.06;;;19.50;56.71
15678;BME280;7939;50.814;6.368;2022-09-16T01:13:59;99435.81;;;19.49;56.57
15678;BME280;7939;50.814;6.368;2022-09-16T01:16:44;99430.66;;;19.48;56.53
15678;BME280;7939;50.814;6.368;2022-09-16T01:19:31;99435.84;;;19.48;56.34
15678;BME280;7939;50.814;6.368;2022-09-16T01:22:09;99438.44;;;19.48;56.29
15678;BME280;7939;50.814;6.368;2022-09-16T01:24:49;99435.00;;;19.47;56.56
15678;BME280;7939;50.814;6.368;2022-09-16T01:30:13;99434.16;;;19.47;56.34
15678;BME280;7939;50.814;6.368;2022-09-16T01:32:52;99432.47;;;19.46;56.24
15678;BME280;7939;50.814;6.368;2022-09-16T01:35:34;99436.00;;;19.45;56.76
15678;BME280;7939;50.814;6.368;2022-09-16T01:38:09;99429.97;;;19.44;56.18
15678;BME280;7939;50.814;6.368;2022-09-16T01:40:45;99427.38;;;19.44;56.63
15678;BME280;7939;50.814;6.368;2022-09-16T01:43:18;99421.38;;;19.42;56.19
15678;BME280;7939;50.814;6.368;2022-09-16T01:45:52;99426.56;;;19.42;56.29
15678;BME280;7939;50.814;6.368;2022-09-16T01:48:24;99430.06;;;19.41;56.56
15678;BME280;7939;50.814;6.368;2022-09-16T01:50:59;99425.81;;;19.40;56.36
15678;BME280;7939;50.814;6.368;2022-09-16T01:53:31;99426.66;;;19.40;56.11
15678;BME280;7939;50.814;6.368;2022-09-16T01:56:03;99427.56;;;19.39;56.23
15678;BME280;7939;50.814;6.368;2022-09-16T01:58:42;99427.56;;;19.39;56.62
15678;BME280;7939;50.814;6.368;2022-09-16T02:01:14;99429.38;;;19.37;56.37
15678;BME280;7939;50.814;6.368;2022-09-16T02:03:48;99423.34;;;19.37;56.68
15678;BME280;7939;50.814;6.368;2022-09-16T02:06:20;99425.94;;;19.37;56.60
15678;BME280;7939;50.814;6.368;2022-09-16T02:08:51;99416.53;;;19.34;56.33
15678;BME280;7939;50.814;6.368;2022-09-16T02:11:21;99412.25;;;19.33;56.25
15678;BME280;7939;50.814;6.368;2022-09-16T02:13:52;99418.28;;;19.34;56.69
15678;BME280;7939;50.814;6.368;2022-09-16T02:16:24;99412.25;;;19.33;56.53
15678;BME280;7939;50.814;6.368;2022-09-16T02:18:57;99416.53;;;19.34;56.44
15678;BME280;7939;50.814;6.368;2022-09-16T02:21:29;99415.78;;;19.32;56.24
15678;BME280;7939;50.814;6.368;2022-09-16T02:24:01;99420.13;;;19.32;56.40
15678;BME280;7939;50.814;6.368;2022-09-16T02:26:33;99420.13;;;19.32;56.95
15678;BME280;7939;50.814;6.368;2022-09-16T02:29:06;99408.97;;;19.30;56.38
15678;BME280;7939;50.814;6.368;2022-09-16T02:31:36;99403.78;;;19.30;56.78
15678;BME280;7939;50.814;6.368;2022-09-16T02:34:06;99410.69;;;19.29;56.83
15678;BME280;7939;50.814;6.368;2022-09-16T02:36:36;99402.16;;;19.27;56.71
15678;BME280;7939;50.814;6.368;2022-09-16T02:39:07;99403.91;;;19.27;56.28
15678;BME280;7939;50.814;6.368;2022-09-16T02:41:37;99399.63;;;19.26;56.53
15678;BME280;7939;50.814;6.368;2022-09-16T02:44:06;99396.22;;;19.25;56.44
15678;BME280;7939;50.814;6.368;2022-09-16T02:46:37;99404.06;;;19.24;56.60
15678;BME280;7939;50.814;6.368;2022-09-16T02:49:11;99409.28;;;19.22;56.78
15678;BME280;7939;50.814;6.368;2022-09-16T02:51:47;99404.94;;;19.23;56.48
15678;BME280;7939;50.814;6.368;2022-09-16T02:54:21;99404.09;;;19.22;56.51
15678;BME280;7939;50.814;6.368;2022-09-16T02:56:49;99402.41;;;19.21;56.17
15678;BME280;7939;50.814;6.368;2022-09-16T02:59:16;99400.72;;;19.20;56.84
15678;BME280;7939;50.814;6.368;2022-09-16T03:01:45;99398.97;;;19.21;56.71
15678;BME280;7939;50.814;6.368;2022-09-16T03:04:15;99405.97;;;19.19;56.49
15678;BME280;7939;50.814;6.368;2022-09-16T03:06:42;99399.88;;;19.20;56.54
15678;BME280;7939;50.814;6.368;2022-09-16T03:09:11;99393.88;;;19.19;56.68
15678;BME280;7939;50.814;6.368;2022-09-16T03:11:52;99390.50;;;19.17;56.82
15678;BME280;7939;50.814;6.368;2022-09-16T03:15:00;99391.38;;;19.16;56.51
15678;BME280;7939;50.814;6.368;2022-09-16T03:17:44;99398.31;;;19.16;56.45
15678;BME280;7939;50.814;6.368;2022-09-16T03:20:20;99398.31;;;19.16;56.64
15678;BME280;7939;50.814;6.368;2022-09-16T03:22:59;99399.22;;;19.14;56.71
15678;BME280;7939;50.814;6.368;2022-09-16T03:25:37;99406.16;;;19.14;56.85
15678;BME280;7939;50.814;6.368;2022-09-16T03:28:11;99409.66;;;19.13;56.35
15678;BME280;7939;50.814;6.368;2022-09-16T03:30:47;99401.97;;;19.11;56.56
15678;BME280;7939;50.814;6.368;2022-09-16T03:33:22;99402.81;;;19.12;56.00
15678;BME280;7939;50.814;6.368;2022-09-16T03:35:56;99404.59;;;19.10;56.27
15678;BME280;7939;50.814;6.368;2022-09-16T03:38:24;99397.66;;;19.10;56.54
15678;BME280;7939;50.814;6.368;2022-09-16T03:40:51;99405.44;;;19.10;56.43
15678;BME280;7939;50.814;6.368;2022-09-16T03:43:18;99401.22;;;19.08;56.59
15678;BME280;7939;50.814;6.368;2022-09-16T03:45:45;99402.06;;;19.08;56.41
15678;BME280;7939;50.814;6.368;2022-09-16T03:48:12;99398.72;;;19.06;56.25
15678;BME280;7939;50.814;6.368;2022-09-16T03:50:39;99397.88;;;19.06;56.38
15678;BME280;7939;50.814;6.368;2022-09-16T03:53:07;99385.75;;;19.06;55.92
15678;BME280;7939;50.814;6.368;2022-09-16T03:55:34;99391.00;;;19.05;56.67
15678;BME280;7939;50.814;6.368;2022-09-16T03:58:01;99384.13;;;19.04;56.79
15678;BME280;7939;50.814;6.368;2022-09-16T04:00:27;99391.88;;;19.04;56.53
15678;BME280;7939;50.814;6.368;2022-09-16T04:02:54;99386.78;;;19.02;56.52
15678;BME280;7939;50.814;6.368;2022-09-16T04:05:21;99393.63;;;19.03;55.96
15678;BME280;7939;50.814;6.368;2022-09-16T04:07:47;99385.03;;;19.03;55.84
15678;BME280;7939;50.814;6.368;2022-09-16T04:10:16;99380.91;;;18.99;56.38
15678;BME280;7939;50.814;6.368;2022-09-16T04:12:43;99390.34;;;19.00;56.60
15678;BME280;7939;50.814;6.368;2022-09-16T04:15:09;99379.16;;;18.99;56.27
15678;BME280;7939;50.814;6.368;2022-09-16T04:17:36;99377.50;;;18.97;56.43
15678;BME280;7939;50.814;6.368;2022-09-16T04:20:04;99373.16;;;18.97;55.98
15678;BME280;7939;50.814;6.368;2022-09-16T04:22:32;99364.63;;;18.95;56.57
15678;BME280;7939;50.814;6.368;2022-09-16T04:24:58;99364.63;;;18.95;56.49
15678;BME280;7939;50.814;6.368;2022-09-16T04:27:26;99364.72;;;18.94;56.14
15678;BME280;7939;50.814;6.368;2022-09-16T04:29:53;99363.88;;;18.93;56.40
15678;BME280;7939;50.814;6.368;2022-09-16T04:32:20;99371.63;;;18.93;56.26
15678;BME280;7939;50.814;6.368;2022-09-16T04:34:47;99365.63;;;18.93;56.14
15678;BME280;7939;50.814;6.368;2022-09-16T04:37:13;99379.41;;;18.93;55.97
15678;BME280;7939;50.814;6.368;2022-09-16T04:39:40;99382.94;;;18.91;55.91
15678;BME280;7939;50.814;6.368;2022-09-16T04:42:06;99385.53;;;18.91;55.94
15678;BME280;7939;50.814;6.368;2022-09-16T04:44:37;99394.19;;;18.90;55.72
15678;BME280;7939;50.814;6.368;2022-09-16T04:47:04;99386.44;;;18.90;55.72
15678;BME280;7939;50.814;6.368;2022-09-16T04:49:30;99375.31;;;18.88;55.71
15678;BME280;7939;50.814;6.368;2022-09-16T04:51:57;99380.50;;;18.88;56.02
15678;BME280;7939;50.814;6.368;2022-09-16T04:54:24;99385.59;;;18.89;55.89
15678;BME280;7939;50.814;6.368;2022-09-16T04:56:50;99377.06;;;18.87;55.93
15678;BME280;7939;50.814;6.368;2022-09-16T04:59:17;99384.88;;;18.85;56.16
15678;BME280;7939;50.814;6.368;2022-09-16T05:01:46;99384.88;;;18.85;55.64
15678;BME280;7939;50.814;6.368;2022-09-16T05:04:12;99390.94;;;18.84;55.74
15678;BME280;7939;50.814;6.368;2022-09-16T05:06:40;99391.78;;;18.85;55.87
15678;BME280;7939;50.814;6.368;2022-09-16T05:09:08;99386.69;;;18.83;55.87
15678;BME280;7939;50.814;6.368;2022-09-16T05:11:37;99374.66;;;18.82;56.13
15678;BME280;7939;50.814;6.368;2022-09-16T05:14:07;99379.75;;;18.84;55.72
15678;BME280;7939;50.814;6.368;2022-09-16T05:16:33;99375.50;;;18.83;55.83
15678;BME280;7939;50.814;6.368;2022-09-16T05:19:02;99371.22;;;18.82;56.14
15678;BME280;7939;50.814;6.368;2022-09-16T05:21:30;99368.69;;;18.80;55.76
15678;BME280;7939;50.814;6.368;2022-09-16T05:23:59;99375.63;;;18.80;56.40
15678;BME280;7939;50.814;6.368;2022-09-16T05:26:28;99381.66;;;18.80;56.02
15678;BME280;7939;50.814;6.368;2022-09-16T05:28:58;99379.97;;;18.79;56.50
15678;BME280;7939;50.814;6.368;2022-09-16T05:31:28;99389.44;;;18.79;56.26
15678;BME280;7939;50.814;6.368;2022-09-16T05:33:57;99394.63;;;18.79;55.82
15678;BME280;7939;50.814;6.368;2022-09-16T05:36:26;99393.78;;;18.78;56.15
15678;BME280;7939;50.814;6.368;2022-09-16T05:38:53;99392.91;;;18.79;55.84
15678;BME280;7939;50.814;6.368;2022-09-16T05:41:19;99380.00;;;18.78;56.68
15678;BME280;7939;50.814;6.368;2022-09-16T05:43:46;99380.91;;;18.77;55.83
15678;BME280;7939;50.814;6.368;2022-09-16T05:46:17;99385.19;;;18.78;55.98
15678;BME280;7939;50.814;6.368;2022-09-16T05:48:43;99387.00;;;18.76;56.42
15678;BME280;7939;50.814;6.368;2022-09-16T05:51:12;99381.81;;;18.76;56.56
15678;BME280;7939;50.814;6.368;2022-09-16T05:53:42;99391.34;;;18.75;56.55
15678;BME280;7939;50.814;6.368;2022-09-16T05:56:11;99395.66;;;18.75;56.46
15678;BME280;7939;50.814;6.368;2022-09-16T05:58:38;99393.91;;;18.75;56.41
15678;BME280;7939;50.814;6.368;2022-09-16T06:01:07;99400.91;;;18.73;56.70
15678;BME280;7939;50.814;6.368;2022-09-16T06:03:35;99403.50;;;18.73;56.21
15678;BME280;7939;50.814;6.368;2022-09-16T06:06:03;99402.59;;;18.74;56.14
15678;BME280;7939;50.814;6.368;2022-09-16T06:08:32;99401.75;;;18.74;56.50
15678;BME280;7939;50.814;6.368;2022-09-16T06:11:01;99404.34;;;18.74;55.99
15678;BME280;7939;50.814;6.368;2022-09-16T06:13:27;99405.22;;;18.73;56.20
15678;BME280;7939;50.814;6.368;2022-09-16T06:15:54;99405.19;;;18.74;56.77
15678;BME280;7939;50.814;6.368;2022-09-16T06:18:21;99398.31;;;18.73;56.23
15678;BME280;7939;50.814;6.368;2022-09-16T06:20:48;99397.41;;;18.74;56.22
15678;BME280;7939;50.814;6.368;2022-09-16T06:23:15;99403.53;;;18.72;56.60
15678;BME280;7939;50.814;6.368;2022-09-16T06:25:42;99408.72;;;18.72;56.73
15678;BME280;7939;50.814;6.368;2022-09-16T06:28:10;99409.63;;;18.71;56.81
15678;BME280;7939;50.814;6.368;2022-09-16T06:30:37;99409.63;;;18.71;56.70
15678;BME280;7939;50.814;6.368;2022-09-16T06:33:04;99408.69;;;18.73;56.11
15678;BME280;7939;50.814;6.368;2022-09-16T06:35:32;99404.38;;;18.72;56.08
15678;BME280;7939;50.814;6.368;2022-09-16T06:37:59;99413.00;;;18.73;56.40
15678;BME280;7939;50.814;6.368;2022-09-16T06:40:26;99413.06;;;18.71;56.31
15678;BME280;7939;50.814;6.368;2022-09-16T06:42:53;99409.63;;;18.71;56.33
15678;BME280;7939;50.814;6.368;2022-09-16T06:45:21;99418.31;;;18.70;56.42
15678;BME280;7939;50.814;6.368;2022-09-16T06:47:47;99407.09;;;18.69;56.80
15678;BME280;7939;50.814;6.368;2022-09-16T06:50:14;99401.03;;;18.70;56.55
15678;BME280;7939;50.814;6.368;2022-09-16T06:52:40;99413.06;;;18.71;56.36
15678;BME280;7939;50.814;6.368;2022-09-16T06:55:07;99409.63;;;18.71;56.58
15678;BME280;7939;50.814;6.368;2022-09-16T06:57:34;99410.47;;;18.71;56.13
15678;BME280;7939;50.814;6.368;2022-09-16T07:00:01;99400.94;;;18.72;56.41
15678;BME280;7939;50.814;6.368;2022-09-16T07:02:29;99403.69;;;18.69;56.20
15678;BME280;7939;50.814;6.368;2022-09-16T07:04:56;99406.19;;;18.70;56.04
15678;BME280;7939;50.814;6.368;2022-09-16T07:07:23;99409.56;;;18.72;56.40
15678;BME280;7939;50.814;6.368;2022-09-16T07:09:49;99405.22;;;18.73;56.60
15678;BME280;7939;50.814;6.368;2022-09-16T07:12:16;99414.75;;;18.72;56.39
15678;BME280;7939;50.814;6.368;2022-09-16T07:14:42;99410.41;;;18.73;56.48
15678;BME280;7939;50.814;6.368;2022-09-16T07:17:09;99414.75;;;18.72;56.85
15678;BME280;7939;50.814;6.368;2022-09-16T07:19:36;99413.00;;;18.73;56.41
15678;BME280;7939;50.814;6.368;2022-09-16T07:22:03;99415.56;;;18.73;56.41
15678;BME280;7939;50.814;6.368;2022-09-16T07:24:30;99410.41;;;18.73;56.59
15678;BME280;7939;50.814;6.368;2022-09-16T07:26:56;99424.22;;;18.73;56.53
15678;BME280;7939;50.814;6.368;2022-09-16T07:29:23;99430.22;;;18.74;56.98
15678;BME280;7939;50.814;6.368;2022-09-16T07:31:50;99419.03;;;18.73;57.20
15678;BME280;7939;50.814;6.368;2022-09-16T07:34:16;99424.22;;;18.73;56.73
15678;BME280;7939;50.814;6.368;2022-09-16T07:36:46;99426.81;;;18.73;56.91
15678;BME280;7939;50.814;6.368;2022-09-16T07:39:14;99426.81;;;18.73;57.18
15678;BME280;7939;50.814;6.368;2022-09-16T07:41:44;99425.91;;;18.74;56.96
15678;BME280;7939;50.814;6.368;2022-09-16T07:44:14;99421.66;;;18.72;56.65
15678;BME280;7939;50.814;6.368;2022-09-16T07:46:41;99422.50;;;18.72;56.59
15678;BME280;7939;50.814;6.368;2022-09-16T07:49:09;99424.22;;;18.73;57.09
15678;BME280;7939;50.814;6.368;2022-09-16T07:51:36;99431.09;;;18.73;56.74
15678;BME280;7939;50.814;6.368;2022-09-16T07:54:06;99426.81;;;18.73;56.53
15678;BME280;7939;50.814;6.368;2022-09-16T07:56:35;99433.66;;;18.74;56.69
15678;BME280;7939;50.814;6.368;2022-09-16T07:59:04;99437.88;;;18.77;56.46
15678;BME280;7939;50.814;6.368;2022-09-16T08:01:31;99437.88;;;18.77;56.53
15678;BME280;7939;50.814;6.368;2022-09-16T08:03:58;99455.16;;;18.76;56.82
15678;BME280;7939;50.814;6.368;2022-09-16T08:06:27;99447.38;;;18.76;56.24
15678;BME280;7939;50.814;6.368;2022-09-16T08:08:56;99454.31;;;18.76;56.36
15678;BME280;7939;50.814;6.368;2022-09-16T08:11:25;99444.00;;;18.74;56.60
15678;BME280;7939;50.814;6.368;2022-09-16T08:13:53;99454.31;;;18.76;56.88
15678;BME280;7939;50.814;6.368;2022-09-16T08:16:20;99453.41;;;18.77;56.15
15678;BME280;7939;50.814;6.368;2022-09-16T08:18:49;99459.41;;;18.77;56.58
15678;BME280;7939;50.814;6.368;2022-09-16T08:21:18;99458.56;;;18.77;56.61
15678;BME280;7939;50.814;6.368;2022-09-16T08:23:45;99458.50;;;18.78;56.03
15678;BME280;7939;50.814;6.368;2022-09-16T08:26:13;99464.59;;;18.77;56.46
15678;BME280;7939;50.814;6.368;2022-09-16T08:28:43;99469.78;;;18.77;55.99
15678;BME280;7939;50.814;6.368;2022-09-16T08:31:10;99459.34;;;18.79;56.39
15678;BME280;7939;50.814;6.368;2022-09-16T08:33:38;99456.81;;;18.77;56.29
15678;BME280;7939;50.814;6.368;2022-09-16T08:36:08;99455.88;;;18.80;56.27
15678;BME280;7939;50.814;6.368;2022-09-16T08:38:36;99473.34;;;18.75;55.88
15678;BME280;7939;50.814;6.368;2022-09-16T08:41:06;99476.75;;;18.75;54.99
15678;BME280;7939;50.814;6.368;2022-09-16T08:43:44;99475.00;;;18.76;55.46
15678;BME280;7939;50.814;6.368;2022-09-16T08:46:15;99475.78;;;18.78;55.71
15678;BME280;7939;50.814;6.368;2022-09-16T08:48:50;99472.28;;;18.79;55.31
15678;BME280;7939;50.814;6.368;2022-09-16T08:51:19;99468.03;;;18.78;54.56
15678;BME280;7939;50.814;6.368;2022-09-16T08:53:51;99470.56;;;18.79;55.35
15678;BME280;7939;50.814;6.368;2022-09-16T08:56:21;99471.41;;;18.80;55.00
15678;BME280;7939;50.814;6.368;2022-09-16T08:58:53;99479.97;;;18.82;55.33
15678;BME280;7939;50.814;6.368;2022-09-16T09:01:25;99481.63;;;18.83;54.46
15678;BME280;7939;50.814;6.368;2022-09-16T09:03:54;99474.72;;;18.83;55.03
15678;BME280;7939;50.814;6.368;2022-09-16T09:06:44;99473.25;;;18.76;53.81
15678;BME280;7939;50.814;6.368;2022-09-16T09:09:24;99480.81;;;18.82;55.55
15678;BME280;7939;50.814;6.368;2022-09-16T09:12:00;99479.97;;;18.82;54.91
15678;BME280;7939;50.814;6.368;2022-09-16T09:14:40;99488.50;;;18.84;55.04
15678;BME280;7939;50.814;6.368;2022-09-16T09:17:15;99480.63;;;18.87;55.86
15678;BME280;7939;50.814;6.368;2022-09-16T09:19:55;99488.44;;;18.85;54.57
15678;BME280;7939;50.814;6.368;2022-09-16T09:22:43;99485.84;;;18.85;54.65
15678;BME280;7939;50.814;6.368;2022-09-16T09:25:24;99483.31;;;18.84;55.09
15678;BME280;7939;50.814;6.368;2022-09-16T09:28:03;99474.78;;;18.82;56.81
15678;BME280;7939;50.814;6.368;2022-09-16T09:30:37;99474.41;;;19.13;55.33
15678;BME280;7939;50.814;6.368;2022-09-16T09:33:17;99486.16;;;19.22;54.05
15678;BME280;7939;50.814;6.368;2022-09-16T09:35:57;99475.13;;;19.17;54.28
15678;BME280;7939;50.814;6.368;2022-09-16T09:38:48;99475.19;;;19.15;54.71
15678;BME280;7939;50.814;6.368;2022-09-16T09:41:22;99473.59;;;19.12;54.66
15678;BME280;7939;50.814;6.368;2022-09-16T09:43:54;99470.91;;;19.14;54.70
15678;BME280;7939;50.814;6.368;2022-09-16T09:46:27;99472.75;;;19.12;54.32
15678;BME280;7939;50.814;6.368;2022-09-16T09:48:57;99474.50;;;19.11;54.43
15678;BME280;7939;50.814;6.368;2022-09-16T09:51:29;99476.09;;;19.14;54.69
15678;BME280;7939;50.814;6.368;2022-09-16T09:54:02;99475.13;;;19.17;54.29
15678;BME280;7939;50.814;6.368;2022-09-16T09:56:33;99477.78;;;19.15;54.61
15678;BME280;7939;50.814;6.368;2022-09-16T09:59:24;99479.59;;;19.13;54.24
15678;BME280;7939;50.814;6.368;2022-09-16T10:01:54;99465.63;;;19.17;53.70
15678;BME280;7939;50.814;6.368;2022-09-16T10:04:20;99469.06;;;19.18;54.15
15678;BME280;7939;50.814;6.368;2022-09-16T10:06:48;99482.00;;;19.18;52.65
15678;BME280;7939;50.814;6.368;2022-09-16T10:09:18;99479.44;;;19.18;52.97
15678;BME280;7939;50.814;6.368;2022-09-16T10:11:47;99475.09;;;19.18;52.63
15678;BME280;7939;50.814;6.368;2022-09-16T10:14:23;99462.91;;;19.20;52.96
15678;BME280;7939;50.814;6.368;2022-09-16T10:16:52;99463.75;;;19.21;53.02
15678;BME280;7939;50.814;6.368;2022-09-16T10:19:22;99468.94;;;19.21;53.22
15678;BME280;7939;50.814;6.368;2022-09-16T10:21:52;99464.50;;;19.23;53.31
15678;BME280;7939;50.814;6.368;2022-09-16T10:24:27;99459.34;;;19.23;53.45
15678;BME280;7939;50.814;6.368;2022-09-16T10:26:54;99466.22;;;19.24;53.31
15678;BME280;7939;50.814;6.368;2022-09-16T10:29:21;99467.00;;;19.26;53.27
15678;BME280;7939;50.814;6.368;2022-09-16T10:31:48;99466.81;;;19.30;52.96
15678;BME280;7939;50.814;6.368;2022-09-16T10:34:18;99458.06;;;19.33;53.18
15678;BME280;7939;50.814;6.368;2022-09-16T10:36:58;99456.13;;;19.38;53.14
15678;BME280;7939;50.814;6.368;2022-09-16T10:39:26;99455.28;;;19.37;53.24
15678;BME280;7939;50.814;6.368;2022-09-16T10:41:54;99457.66;;;19.42;52.83
15678;BME280;7939;50.814;6.368;2022-09-16T10:44:25;99456.66;;;19.46;53.27
15678;BME280;7939;50.814;6.368;2022-09-16T10:46:54;99454.81;;;19.48;52.82
15678;BME280;7939;50.814;6.368;2022-09-16T10:49:26;99447.72;;;19.53;52.74
15678;BME280;7939;50.814;6.368;2022-09-16T10:52:06;99449.34;;;19.56;52.84
15678;BME280;7939;50.814;6.368;2022-09-16T10:54:33;99451.09;;;19.55;52.72
15678;BME280;7939;50.814;6.368;2022-09-16T10:57:00;99447.59;;;19.56;53.27
15678;BME280;7939;50.814;6.368;2022-09-16T10:59:26;99442.38;;;19.58;53.39
15678;BME280;7939;50.814;6.368;2022-09-16T11:02:01;99449.06;;;19.63;52.75
15678;BME280;7939;50.814;6.368;2022-09-16T11:04:40;99451.31;;;19.71;53.21
15678;BME280;7939;50.814;6.368;2022-09-16T11:07:19;99446.84;;;19.75;53.03
15678;BME280;7939;50.814;6.368;2022-09-16T11:09:56;99448.44;;;19.77;52.76
15678;BME280;7939;50.814;6.368;2022-09-16T11:12:53;99450.97;;;19.79;51.93
15678;BME280;7939;50.814;6.368;2022-09-16T11:15:35;99444.75;;;19.83;52.78
15678;BME280;7939;50.814;6.368;2022-09-16T11:18:17;99436.97;;;19.83;52.65
15678;BME280;7939;50.814;6.368;2022-09-16T11:20:58;99444.41;;;19.90;52.49
15678;BME280;7939;50.814;6.368;2022-09-16T11:23:40;99454.09;;;19.87;53.23
15678;BME280;7939;50.814;6.368;2022-09-16T11:26:14;99452.38;;;19.86;53.24
15678;BME280;7939;50.814;6.368;2022-09-16T11:28:56;99460.97;;;19.88;53.69
15678;BME280;7939;50.814;6.368;2022-09-16T11:31:35;99464.41;;;19.88;54.06
15678;BME280;7939;50.814;6.368;2022-09-16T11:34:11;99468.75;;;19.88;54.13
15678;BME280;7939;50.814;6.368;2022-09-16T11:36:51;99473.09;;;19.87;54.34
15678;BME280;7939;50.814;6.368;2022-09-16T11:39:35;99478.22;;;19.89;54.78
15678;BME280;7939;50.814;6.368;2022-09-16T11:42:11;99492.94;;;19.88;54.91
15678;BME280;7939;50.814;6.368;2022-09-16T11:44:45;99492.16;;;19.86;54.94
15678;BME280;7939;50.814;6.368;2022-09-16T11:47:29;99483.66;;;19.83;55.70
15678;BME280;7939;50.814;6.368;2022-09-16T11:50:07;99495.72;;;19.84;55.44
15678;BME280;7939;50.814;6.368;2022-09-16T11:52:53;99513.88;;;19.84;55.56
15678;BME280;7939;50.814;6.368;2022-09-16T11:55:35;99511.72;;;19.73;55.98
15678;BME280;7939;50.814;6.368;2022-09-16T11:58:10;99510.09;;;19.71;55.69
15678;BME280;7939;50.814;6.368;2022-09-16T12:00:42;99505.06;;;19.67;56.06
15678;BME280;7939;50.814;6.368;2022-09-16T12:03:12;99501.59;;;19.67;55.81
15678;BME280;7939;50.814;6.368;2022-09-16T12:05:47;99492.97;;;19.66;56.15
15678;BME280;7939;50.814;6.368;2022-09-16T12:08:21;99490.47;;;19.65;55.78
15678;BME280;7939;50.814;6.368;2022-09-16T12:10:55;99488.69;;;19.65;55.56
15678;BME280;7939;50.814;6.368;2022-09-16T12:13:25;99489.69;;;19.63;56.56
15678;BME280;7939;50.814;6.368;2022-09-16T12:15:56;99488.88;;;19.61;56.50
15678;BME280;7939;50.814;6.368;2022-09-16T12:18:29;99483.66;;;19.62;56.60
15678;BME280;7939;50.814;6.368;2022-09-16T12:21:06;99482.97;;;19.57;56.73
15678;BME280;7939;50.814;6.368;2022-09-16T12:23:38;99494.94;;;19.61;56.80
15678;BME280;7939;50.814;6.368;2022-09-16T12:26:10;99489.78;;;19.60;56.69
15678;BME280;7939;50.814;6.368;2022-09-16T12:28:42;99507.00;;;19.62;56.99
15678;BME280;7939;50.814;6.368;2022-09-16T12:31:14;99504.41;;;19.62;56.58
15678;BME280;7939;50.814;6.368;2022-09-16T12:33:50;99512.03;;;19.65;56.57
15678;BME280;7939;50.814;6.368;2022-09-16T12:36:22;99557.09;;;19.63;56.66
15678;BME280;7939;50.814;6.368;2022-09-16T12:38:50;99571.91;;;19.59;56.38
15678;BME280;7939;50.814;6.368;2022-09-16T12:41:41;99583.34;;;19.54;55.68
15678;BME280;7939;50.814;6.368;2022-09-16T12:44:47;99584.31;;;19.51;55.93
15678;BME280;7939;50.814;6.368;2022-09-16T12:47:53;99568.88;;;19.48;56.21
15678;BME280;7939;50.814;6.368;2022-09-16T12:53:49;99559.41;;;19.47;56.24
15678;BME280;7939;50.814;6.368;2022-09-16T12:56:32;99557.63;;;19.49;55.59
15678;BME280;7939;50.814;6.368;2022-09-16T12:59:16;99557.66;;;19.48;55.90
15678;BME280;7939;50.814;6.368;2022-09-16T13:01:51;99550.03;;;19.45;55.24
15678;BME280;7939;50.814;6.368;2022-09-16T13:04:21;99540.59;;;19.42;56.10
15678;BME280;7939;50.814;6.368;2022-09-16T13:06:50;99531.94;;;19.43;56.22
15678;BME280;7939;50.814;6.368;2022-09-16T13:09:23;99538.88;;;19.43;55.63
15678;BME280;7939;50.814;6.368;2022-09-16T13:11:57;99531.09;;;19.43;55.47
15678;BME280;7939;50.814;6.368;2022-09-16T13:14:27;99531.34;;;19.36;56.13
15678;BME280;7939;50.814;6.368;2022-09-16T13:16:57;99536.56;;;19.35;56.11
15678;BME280;7939;50.814;6.368;2022-09-16T13:19:38;99534.81;;;19.35;55.61
15678;BME280;7939;50.814;6.368;2022-09-16T13:22:19;99527.13;;;19.34;55.86
15678;BME280;7939;50.814;6.368;2022-09-16T13:24:50;99529.63;;;19.35;55.65
15678;BME280;7939;50.814;6.368;2022-09-16T13:27:29;99528.03;;;19.33;56.13
15678;BME280;7939;50.814;6.368;2022-09-16T13:30:13;99508.31;;;19.29;56.08
15678;BME280;7939;50.814;6.368;2022-09-16T13:32:42;99515.31;;;19.27;55.75
15678;BME280;7939;50.814;6.368;2022-09-16T13:35:35;99518.75;;;19.27;56.08
15678;BME280;7939;50.814;6.368;2022-09-16T13:40:55;99515.38;;;19.25;56.46
15678;BME280;7939;50.814;6.368;2022-09-16T13:43:33;99509.38;;;19.25;56.57